sensor_id;sensor_type;location;lat;lon;timestamp;P1;durP1;ratioP1;P2;durP2;ratioP2
3573;SDS011;1801;51.050;6.246;2022-07-29T00:02:23;3.20;;;1.70;;
3573;SDS011;1801;51.050;6.246;2022-07-29T00:04:49;4.83;;;1.90;;
3573;SDS011;1801;51.050;6.246;2022-07-29T00:07:14;2.57;;;2.07;;
3573;SDS011;1801;51.050;6.246;2022-07-29T00:09:39;3.00;;;1.40;;
3573;SDS011;1801;51.050;6.246;2022-07-29T00:12:04;7.63;;;1.70;;
3573;SDS011;1801;51.050;6.246;2022-07-29T00:14:30;7.17;;;1.60;;
3573;SDS011;1801;51.050;6.246;2022-07-29T00:16:55;5.43;;;1.87;;
3573;SDS011;1801;51.050;6.246;2022-07-29T00:19:20;4.63;;;2.10;;
3573;SDS011;1801;51.050;6.246;2022-07-29T00:21:45;6.40;;;1.73;;
3573;SDS011;1801;51.050;6.246;2022-07-29T00:24:10;4.00;;;2.00;;
3573;SDS011;1801;51.050;6.246;2022-07-29T00:26:36;7.53;;;1.90;;
3573;SDS011;1801;51.050;6.246;2022-07-29T00:29:02;4.97;;;2.10;;
3573;SDS011;1801;51.050;6.246;2022-07-29T00:31:27;3.10;;;1.80;;
3573;SDS011;1801;51.050;6.246;2022-07-29T00:33:53;2.90;;;2.00;;
3573;SDS011;1801;51.050;6.246;2022-07-29T00:36:18;8.23;;;1.90;;
3573;SDS011;1801;51.050;6.246;2022-07-29T00:38:45;3.50;;;1.70;;
3573;SDS011;1801;51.050;6.246;2022-07-29T00:41:11;5.23;;;1.73;;
3573;SDS011;1801;51.050;6.246;2022-07-29T00:43:36;4.80;;;2.40;;
3573;SDS011;1801;51.050;6.246;2022-07-29T00:46:01;4.10;;;1.97;;
3573;SDS011;1801;51.050;6.246;2022-07-29T00:48:27;5.77;;;1.77;;
3573;SDS011;1801;51.050;6.246;2022-07-29T00:50:52;4.77;;;2.13;;
3573;SDS011;1801;51.050;6.246;2022-07-29T00:53:17;6.17;;;2.10;;
3573;SDS011;1801;51.050;6.246;2022-07-29T00:55:44;4.83;;;1.77;;
3573;SDS011;1801;51.050;6.246;2022-07-29T00:58:09;2.47;;;1.53;;
3573;SDS011;1801;51.050;6.246;2022-07-29T01:00:36;5.43;;;1.80;;
3573;SDS011;1801;51.050;6.246;2022-07-29T01:03:02;6.70;;;1.80;;
3573;SDS011;1801;51.050;6.246;2022-07-29T01:05:27;3.20;;;1.80;;
3573;SDS011;1801;51.050;6.246;2022-07-29T01:07:53;3.60;;;2.03;;
3573;SDS011;1801;51.050;6.246;2022-07-29T01:10:19;3.70;;;2.33;;
3573;SDS011;1801;51.050;6.246;2022-07-29T01:12:46;3.13;;;1.60;;
3573;SDS011;1801;51.050;6.246;2022-07-29T01:15:12;6.93;;;2.10;;
3573;SDS011;1801;51.050;6.246;2022-07-29T01:17:41;8.70;;;2.87;;
3573;SDS011;1801;51.050;6.246;2022-07-29T01:27:32;4.50;;;2.43;;
3573;SDS011;1801;51.050;6.246;2022-07-29T01:29:59;17.00;;;2.73;;
3573;SDS011;1801;51.050;6.246;2022-07-29T01:32:27;5.87;;;1.93;;
3573;SDS011;1801;51.050;6.246;2022-07-29T01:37:24;5.53;;;1.90;;
3573;SDS011;1801;51.050;6.246;2022-07-29T01:39:51;9.30;;;2.43;;
3573;SDS011;1801;51.050;6.246;2022-07-29T01:42:23;5.20;;;1.83;;
3573;SDS011;1801;51.050;6.246;2022-07-29T01:45:06;4.13;;;2.13;;
3573;SDS011;1801;51.050;6.246;2022-07-29T01:47:38;6.83;;;2.10;;
3573;SDS011;1801;51.050;6.246;2022-07-29T01:50:06;12.43;;;2.20;;
3573;SDS011;1801;51.050;6.246;2022-07-29T01:52:41;7.60;;;2.53;;
3573;SDS011;1801;51.050;6.246;2022-07-29T01:55:09;10.60;;;2.10;;
3573;SDS011;1801;51.050;6.246;2022-07-29T01:57:36;3.93;;;1.83;;
3573;SDS011;1801;51.050;6.246;2022-07-29T02:00:04;5.63;;;1.90;;
3573;SDS011;1801;51.050;6.246;2022-07-29T02:02:30;5.10;;;1.53;;
3573;SDS011;1801;51.050;6.246;2022-07-29T02:04:56;10.13;;;2.30;;
3573;SDS011;1801;51.050;6.246;2022-07-29T02:07:22;4.80;;;1.70;;
3573;SDS011;1801;51.050;6.246;2022-07-29T02:09:49;2.50;;;1.90;;
3573;SDS011;1801;51.050;6.246;2022-07-29T02:12:15;6.83;;;2.33;;
3573;SDS011;1801;51.050;6.246;2022-07-29T02:14:42;4.40;;;2.07;;
3573;SDS011;1801;51.050;6.246;2022-07-29T02:17:09;8.67;;;2.00;;
3573;SDS011;1801;51.050;6.246;2022-07-29T02:19:35;8.13;;;2.80;;
3573;SDS011;1801;51.050;6.246;2022-07-29T02:22:02;8.40;;;1.90;;
3573;SDS011;1801;51.050;6.246;2022-07-29T02:24:27;3.90;;;1.83;;
3573;SDS011;1801;51.050;6.246;2022-07-29T02:26:54;5.60;;;1.90;;
3573;SDS011;1801;51.050;6.246;2022-07-29T02:29:25;3.03;;;1.80;;
3573;SDS011;1801;51.050;6.246;2022-07-29T02:31:51;7.93;;;1.90;;
3573;SDS011;1801;51.050;6.246;2022-07-29T02:34:18;4.10;;;1.53;;
3573;SDS011;1801;51.050;6.246;2022-07-29T02:36:44;6.73;;;2.10;;
3573;SDS011;1801;51.050;6.246;2022-07-29T02:39:10;1.93;;;1.60;;
3573;SDS011;1801;51.050;6.246;2022-07-29T02:41:42;6.43;;;2.27;;
3573;SDS011;1801;51.050;6.246;2022-07-29T02:44:09;6.17;;;1.90;;
3573;SDS011;1801;51.050;6.246;2022-07-29T02:46:35;2.60;;;1.70;;
3573;SDS011;1801;51.050;6.246;2022-07-29T02:51:46;4.27;;;1.97;;
3573;SDS011;1801;51.050;6.246;2022-07-29T02:54:18;6.83;;;2.33;;
3573;SDS011;1801;51.050;6.246;2022-07-29T02:56:44;13.90;;;3.13;;
3573;SDS011;1801;51.050;6.246;2022-07-29T02:59:10;8.63;;;2.20;;
3573;SDS011;1801;51.050;6.246;2022-07-29T03:01:36;13.50;;;2.23;;
3573;SDS011;1801;51.050;6.246;2022-07-29T03:04:04;5.27;;;2.30;;
3573;SDS011;1801;51.050;6.246;2022-07-29T03:06:30;10.57;;;3.20;;
3573;SDS011;1801;51.050;6.246;2022-07-29T03:08:55;21.70;;;2.57;;
3573;SDS011;1801;51.050;6.246;2022-07-29T03:11:21;6.73;;;2.37;;
3573;SDS011;1801;51.050;6.246;2022-07-29T03:13:47;9.27;;;2.77;;
3573;SDS011;1801;51.050;6.246;2022-07-29T03:16:12;6.90;;;2.90;;
3573;SDS011;1801;51.050;6.246;2022-07-29T03:18:38;3.80;;;2.30;;
3573;SDS011;1801;51.050;6.246;2022-07-29T03:21:04;7.10;;;2.93;;
3573;SDS011;1801;51.050;6.246;2022-07-29T03:23:29;7.17;;;2.90;;
3573;SDS011;1801;51.050;6.246;2022-07-29T03:25:55;11.20;;;4.80;;
3573;SDS011;1801;51.050;6.246;2022-07-29T03:28:20;11.63;;;2.50;;
3573;SDS011;1801;51.050;6.246;2022-07-29T03:30:46;9.20;;;2.67;;
3573;SDS011;1801;51.050;6.246;2022-07-29T03:33:11;7.47;;;3.00;;
3573;SDS011;1801;51.050;6.246;2022-07-29T03:35:37;5.80;;;3.03;;
3573;SDS011;1801;51.050;6.246;2022-07-29T03:38:02;11.30;;;2.77;;
3573;SDS011;1801;51.050;6.246;2022-07-29T03:40:30;6.20;;;3.50;;
3573;SDS011;1801;51.050;6.246;2022-07-29T03:42:56;16.30;;;3.00;;
3573;SDS011;1801;51.050;6.246;2022-07-29T03:45:22;7.70;;;3.37;;
3573;SDS011;1801;51.050;6.246;2022-07-29T03:47:59;6.77;;;3.10;;
3573;SDS011;1801;51.050;6.246;2022-07-29T03:50:25;14.43;;;3.53;;
3573;SDS011;1801;51.050;6.246;2022-07-29T03:52:50;5.60;;;3.37;;
3573;SDS011;1801;51.050;6.246;2022-07-29T03:55:16;8.03;;;2.80;;
3573;SDS011;1801;51.050;6.246;2022-07-29T03:57:41;4.63;;;3.03;;
3573;SDS011;1801;51.050;6.246;2022-07-29T04:00:07;6.00;;;3.27;;
3573;SDS011;1801;51.050;6.246;2022-07-29T04:02:33;7.60;;;3.60;;
3573;SDS011;1801;51.050;6.246;2022-07-29T04:04:58;6.97;;;3.13;;
3573;SDS011;1801;51.050;6.246;2022-07-29T04:07:24;5.00;;;3.07;;
3573;SDS011;1801;51.050;6.246;2022-07-29T04:09:49;7.47;;;3.17;;
3573;SDS011;1801;51.050;6.246;2022-07-29T04:12:14;10.03;;;3.63;;
3573;SDS011;1801;51.050;6.246;2022-07-29T04:14:39;7.57;;;3.87;;
3573;SDS011;1801;51.050;6.246;2022-07-29T04:17:05;8.00;;;3.27;;
3573;SDS011;1801;51.050;6.246;2022-07-29T04:19:30;4.50;;;2.90;;
3573;SDS011;1801;51.050;6.246;2022-07-29T04:21:56;7.83;;;4.63;;
3573;SDS011;1801;51.050;6.246;2022-07-29T04:24:21;5.77;;;3.63;;
3573;SDS011;1801;51.050;6.246;2022-07-29T04:26:46;9.53;;;3.80;;
3573;SDS011;1801;51.050;6.246;2022-07-29T04:29:12;10.23;;;3.87;;
3573;SDS011;1801;51.050;6.246;2022-07-29T04:31:39;11.90;;;4.23;;
3573;SDS011;1801;51.050;6.246;2022-07-29T04:34:04;6.93;;;3.17;;
3573;SDS011;1801;51.050;6.246;2022-07-29T04:36:29;5.90;;;3.43;;
3573;SDS011;1801;51.050;6.246;2022-07-29T04:38:55;8.33;;;3.53;;
3573;SDS011;1801;51.050;6.246;2022-07-29T04:41:20;9.83;;;3.50;;
3573;SDS011;1801;51.050;6.246;2022-07-29T04:43:45;4.23;;;3.20;;
3573;SDS011;1801;51.050;6.246;2022-07-29T04:46:11;6.00;;;3.70;;
3573;SDS011;1801;51.050;6.246;2022-07-29T04:48:36;5.33;;;3.80;;
3573;SDS011;1801;51.050;6.246;2022-07-29T04:51:01;5.90;;;3.47;;
3573;SDS011;1801;51.050;6.246;2022-07-29T04:53:27;7.77;;;4.70;;
3573;SDS011;1801;51.050;6.246;2022-07-29T04:55:52;8.80;;;4.60;;
3573;SDS011;1801;51.050;6.246;2022-07-29T04:58:17;6.50;;;3.70;;
3573;SDS011;1801;51.050;6.246;2022-07-29T05:00:42;8.07;;;4.43;;
3573;SDS011;1801;51.050;6.246;2022-07-29T05:03:07;5.00;;;4.07;;
3573;SDS011;1801;51.050;6.246;2022-07-29T05:05:33;10.03;;;4.00;;
3573;SDS011;1801;51.050;6.246;2022-07-29T05:07:58;5.73;;;3.40;;
3573;SDS011;1801;51.050;6.246;2022-07-29T05:10:23;7.83;;;4.40;;
3573;SDS011;1801;51.050;6.246;2022-07-29T05:12:48;6.67;;;4.53;;
3573;SDS011;1801;51.050;6.246;2022-07-29T05:15:14;14.97;;;5.23;;
3573;SDS011;1801;51.050;6.246;2022-07-29T05:17:39;6.10;;;4.03;;
3573;SDS011;1801;51.050;6.246;2022-07-29T05:20:05;7.50;;;4.10;;
3573;SDS011;1801;51.050;6.246;2022-07-29T05:22:30;4.77;;;3.97;;
3573;SDS011;1801;51.050;6.246;2022-07-29T05:24:55;9.40;;;4.23;;
3573;SDS011;1801;51.050;6.246;2022-07-29T05:27:21;9.80;;;3.60;;
3573;SDS011;1801;51.050;6.246;2022-07-29T05:29:46;12.27;;;4.50;;
3573;SDS011;1801;51.050;6.246;2022-07-29T05:32:12;11.47;;;3.87;;
3573;SDS011;1801;51.050;6.246;2022-07-29T05:34:37;11.50;;;3.97;;
3573;SDS011;1801;51.050;6.246;2022-07-29T05:37:02;9.97;;;3.70;;
3573;SDS011;1801;51.050;6.246;2022-07-29T05:39:27;5.23;;;3.20;;
3573;SDS011;1801;51.050;6.246;2022-07-29T05:41:53;10.20;;;4.50;;
3573;SDS011;1801;51.050;6.246;2022-07-29T05:44:18;9.70;;;4.03;;
3573;SDS011;1801;51.050;6.246;2022-07-29T05:46:43;11.60;;;4.37;;
3573;SDS011;1801;51.050;6.246;2022-07-29T05:49:08;8.27;;;4.37;;
3573;SDS011;1801;51.050;6.246;2022-07-29T05:51:34;9.43;;;4.70;;
3573;SDS011;1801;51.050;6.246;2022-07-29T05:53:59;11.80;;;4.47;;
3573;SDS011;1801;51.050;6.246;2022-07-29T05:56:24;11.70;;;4.17;;
3573;SDS011;1801;51.050;6.246;2022-07-29T05:58:50;13.57;;;5.70;;
3573;SDS011;1801;51.050;6.246;2022-07-29T06:01:15;9.10;;;4.83;;
3573;SDS011;1801;51.050;6.246;2022-07-29T06:03:41;12.20;;;4.93;;
3573;SDS011;1801;51.050;6.246;2022-07-29T06:06:06;12.00;;;4.93;;
3573;SDS011;1801;51.050;6.246;2022-07-29T06:08:32;13.63;;;5.23;;
3573;SDS011;1801;51.050;6.246;2022-07-29T06:10:58;10.80;;;4.73;;
3573;SDS011;1801;51.050;6.246;2022-07-29T06:13:23;11.13;;;5.43;;
3573;SDS011;1801;51.050;6.246;2022-07-29T06:15:49;9.83;;;5.37;;
3573;SDS011;1801;51.050;6.246;2022-07-29T06:18:14;12.53;;;6.00;;
3573;SDS011;1801;51.050;6.246;2022-07-29T06:20:39;9.23;;;5.27;;
3573;SDS011;1801;51.050;6.246;2022-07-29T06:23:04;7.90;;;4.97;;
3573;SDS011;1801;51.050;6.246;2022-07-29T06:25:30;7.60;;;5.27;;
3573;SDS011;1801;51.050;6.246;2022-07-29T06:27:55;9.07;;;5.20;;
3573;SDS011;1801;51.050;6.246;2022-07-29T06:30:20;8.07;;;4.50;;
3573;SDS011;1801;51.050;6.246;2022-07-29T06:32:45;7.47;;;5.40;;
3573;SDS011;1801;51.050;6.246;2022-07-29T06:35:11;13.10;;;5.20;;
3573;SDS011;1801;51.050;6.246;2022-07-29T06:37:36;8.73;;;5.37;;
3573;SDS011;1801;51.050;6.246;2022-07-29T06:40:03;7.33;;;4.20;;
3573;SDS011;1801;51.050;6.246;2022-07-29T06:42:47;8.33;;;5.20;;
3573;SDS011;1801;51.050;6.246;2022-07-29T06:45:12;11.27;;;6.00;;
3573;SDS011;1801;51.050;6.246;2022-07-29T06:47:37;7.70;;;4.93;;
3573;SDS011;1801;51.050;6.246;2022-07-29T06:50:03;11.10;;;5.20;;
3573;SDS011;1801;51.050;6.246;2022-07-29T06:52:29;9.50;;;5.17;;
3573;SDS011;1801;51.050;6.246;2022-07-29T06:54:54;12.70;;;6.30;;
3573;SDS011;1801;51.050;6.246;2022-07-29T06:57:20;8.07;;;4.70;;
3573;SDS011;1801;51.050;6.246;2022-07-29T06:59:45;9.00;;;5.50;;
3573;SDS011;1801;51.050;6.246;2022-07-29T07:02:10;11.83;;;5.27;;
3573;SDS011;1801;51.050;6.246;2022-07-29T07:04:35;9.93;;;4.90;;
3573;SDS011;1801;51.050;6.246;2022-07-29T07:07:01;10.30;;;4.73;;
3573;SDS011;1801;51.050;6.246;2022-07-29T07:09:26;10.50;;;5.80;;
3573;SDS011;1801;51.050;6.246;2022-07-29T07:11:51;12.30;;;7.30;;
3573;SDS011;1801;51.050;6.246;2022-07-29T07:14:16;11.23;;;6.90;;
3573;SDS011;1801;51.050;6.246;2022-07-29T07:16:42;16.63;;;7.40;;
3573;SDS011;1801;51.050;6.246;2022-07-29T07:19:07;17.70;;;7.40;;
3573;SDS011;1801;51.050;6.246;2022-07-29T07:21:32;18.23;;;5.93;;
3573;SDS011;1801;51.050;6.246;2022-07-29T07:23:58;13.57;;;5.43;;
3573;SDS011;1801;51.050;6.246;2022-07-29T07:26:24;12.00;;;4.57;;
3573;SDS011;1801;51.050;6.246;2022-07-29T07:28:50;19.37;;;5.03;;
3573;SDS011;1801;51.050;6.246;2022-07-29T07:31:15;22.00;;;4.83;;
3573;SDS011;1801;51.050;6.246;2022-07-29T07:33:40;10.40;;;4.20;;
3573;SDS011;1801;51.050;6.246;2022-07-29T07:36:05;6.83;;;4.20;;
3573;SDS011;1801;51.050;6.246;2022-07-29T07:38:31;7.63;;;4.23;;
3573;SDS011;1801;51.050;6.246;2022-07-29T07:40:56;13.47;;;4.43;;
3573;SDS011;1801;51.050;6.246;2022-07-29T07:43:21;15.33;;;4.90;;
3573;SDS011;1801;51.050;6.246;2022-07-29T07:45:47;15.27;;;5.33;;
3573;SDS011;1801;51.050;6.246;2022-07-29T07:48:12;8.30;;;5.70;;
3573;SDS011;1801;51.050;6.246;2022-07-29T07:50:38;9.87;;;4.30;;
3573;SDS011;1801;51.050;6.246;2022-07-29T07:53:03;13.93;;;4.93;;
3573;SDS011;1801;51.050;6.246;2022-07-29T07:55:28;9.73;;;4.50;;
3573;SDS011;1801;51.050;6.246;2022-07-29T07:57:54;10.20;;;5.13;;
3573;SDS011;1801;51.050;6.246;2022-07-29T08:00:19;9.07;;;4.40;;
3573;SDS011;1801;51.050;6.246;2022-07-29T08:02:45;8.00;;;4.90;;
3573;SDS011;1801;51.050;6.246;2022-07-29T08:05:10;9.00;;;4.40;;
3573;SDS011;1801;51.050;6.246;2022-07-29T08:07:36;8.53;;;4.07;;
3573;SDS011;1801;51.050;6.246;2022-07-29T08:10:02;9.30;;;4.50;;
3573;SDS011;1801;51.050;6.246;2022-07-29T08:12:28;13.07;;;5.00;;
3573;SDS011;1801;51.050;6.246;2022-07-29T08:14:53;5.37;;;3.93;;
3573;SDS011;1801;51.050;6.246;2022-07-29T08:17:19;17.30;;;5.10;;
3573;SDS011;1801;51.050;6.246;2022-07-29T08:19:44;7.53;;;4.50;;
3573;SDS011;1801;51.050;6.246;2022-07-29T08:22:09;14.17;;;4.37;;
3573;SDS011;1801;51.050;6.246;2022-07-29T08:24:35;12.33;;;4.50;;
3573;SDS011;1801;51.050;6.246;2022-07-29T08:27:12;13.10;;;4.33;;
3573;SDS011;1801;51.050;6.246;2022-07-29T08:29:37;10.77;;;4.10;;
3573;SDS011;1801;51.050;6.246;2022-07-29T08:32:03;7.70;;;4.00;;
3573;SDS011;1801;51.050;6.246;2022-07-29T08:34:28;8.33;;;4.10;;
3573;SDS011;1801;51.050;6.246;2022-07-29T08:36:54;7.50;;;4.00;;
3573;SDS011;1801;51.050;6.246;2022-07-29T08:39:20;7.50;;;4.27;;
3573;SDS011;1801;51.050;6.246;2022-07-29T08:41:45;12.00;;;5.80;;
3573;SDS011;1801;51.050;6.246;2022-07-29T08:44:12;8.20;;;4.23;;
3573;SDS011;1801;51.050;6.246;2022-07-29T08:46:38;11.77;;;5.20;;
3573;SDS011;1801;51.050;6.246;2022-07-29T08:49:04;6.90;;;4.90;;
3573;SDS011;1801;51.050;6.246;2022-07-29T08:51:46;8.20;;;4.37;;
3573;SDS011;1801;51.050;6.246;2022-07-29T08:54:11;16.30;;;5.43;;
3573;SDS011;1801;51.050;6.246;2022-07-29T08:56:41;9.87;;;5.53;;
3573;SDS011;1801;51.050;6.246;2022-07-29T08:59:06;7.40;;;3.90;;
3573;SDS011;1801;51.050;6.246;2022-07-29T09:01:33;8.23;;;5.33;;
3573;SDS011;1801;51.050;6.246;2022-07-29T09:03:58;7.73;;;4.23;;
3573;SDS011;1801;51.050;6.246;2022-07-29T09:06:25;8.07;;;4.53;;
3573;SDS011;1801;51.050;6.246;2022-07-29T09:08:54;10.13;;;4.60;;
3573;SDS011;1801;51.050;6.246;2022-07-29T09:11:21;10.43;;;4.53;;
3573;SDS011;1801;51.050;6.246;2022-07-29T09:13:46;11.27;;;4.67;;
3573;SDS011;1801;51.050;6.246;2022-07-29T09:16:12;10.03;;;5.87;;
3573;SDS011;1801;51.050;6.246;2022-07-29T09:18:41;4.37;;;3.80;;
3573;SDS011;1801;51.050;6.246;2022-07-29T09:21:10;8.67;;;4.90;;
3573;SDS011;1801;51.050;6.246;2022-07-29T09:24:11;9.33;;;4.43;;
3573;SDS011;1801;51.050;6.246;2022-07-29T09:26:37;11.70;;;4.10;;
3573;SDS011;1801;51.050;6.246;2022-07-29T09:29:10;12.17;;;4.87;;
3573;SDS011;1801;51.050;6.246;2022-07-29T09:31:37;14.30;;;5.90;;
3573;SDS011;1801;51.050;6.246;2022-07-29T09:34:03;10.03;;;4.20;;
3573;SDS011;1801;51.050;6.246;2022-07-29T09:36:28;12.00;;;5.50;;
3573;SDS011;1801;51.050;6.246;2022-07-29T09:39:00;5.97;;;4.23;;
3573;SDS011;1801;51.050;6.246;2022-07-29T09:41:26;7.17;;;4.70;;
3573;SDS011;1801;51.050;6.246;2022-07-29T09:43:58;10.13;;;4.90;;
3573;SDS011;1801;51.050;6.246;2022-07-29T09:46:23;8.23;;;4.23;;
3573;SDS011;1801;51.050;6.246;2022-07-29T09:49:05;13.10;;;6.90;;
3573;SDS011;1801;51.050;6.246;2022-07-29T09:51:30;9.33;;;5.20;;
3573;SDS011;1801;51.050;6.246;2022-07-29T09:53:56;9.33;;;4.83;;
3573;SDS011;1801;51.050;6.246;2022-07-29T09:56:37;9.33;;;5.27;;
3573;SDS011;1801;51.050;6.246;2022-07-29T09:59:06;8.33;;;4.77;;
3573;SDS011;1801;51.050;6.246;2022-07-29T10:01:31;14.43;;;4.80;;
3573;SDS011;1801;51.050;6.246;2022-07-29T10:03:56;10.70;;;5.70;;
3573;SDS011;1801;51.050;6.246;2022-07-29T10:06:22;11.33;;;5.20;;
3573;SDS011;1801;51.050;6.246;2022-07-29T10:08:47;7.67;;;4.53;;
3573;SDS011;1801;51.050;6.246;2022-07-29T10:11:15;7.57;;;4.53;;
3573;SDS011;1801;51.050;6.246;2022-07-29T10:13:41;13.27;;;5.10;;
3573;SDS011;1801;51.050;6.246;2022-07-29T10:16:06;7.50;;;4.63;;
3573;SDS011;1801;51.050;6.246;2022-07-29T10:18:32;9.93;;;5.60;;
3573;SDS011;1801;51.050;6.246;2022-07-29T10:20:57;11.40;;;5.33;;
3573;SDS011;1801;51.050;6.246;2022-07-29T10:23:23;11.23;;;6.47;;
3573;SDS011;1801;51.050;6.246;2022-07-29T10:25:49;7.50;;;4.63;;
3573;SDS011;1801;51.050;6.246;2022-07-29T10:28:14;6.37;;;4.20;;
3573;SDS011;1801;51.050;6.246;2022-07-29T10:30:39;13.27;;;5.10;;
3573;SDS011;1801;51.050;6.246;2022-07-29T10:38:32;11.37;;;5.27;;
3573;SDS011;1801;51.050;6.246;2022-07-29T10:41:12;14.77;;;5.10;;
3573;SDS011;1801;51.050;6.246;2022-07-29T10:43:54;11.17;;;4.53;;
3573;SDS011;1801;51.050;6.246;2022-07-29T10:46:20;10.13;;;4.77;;
3573;SDS011;1801;51.050;6.246;2022-07-29T10:54:14;9.00;;;4.57;;
3573;SDS011;1801;51.050;6.246;2022-07-29T10:56:40;9.47;;;4.77;;
3573;SDS011;1801;51.050;6.246;2022-07-29T11:01:47;8.27;;;5.40;;
3573;SDS011;1801;51.050;6.246;2022-07-29T11:04:14;12.40;;;5.40;;
3573;SDS011;1801;51.050;6.246;2022-07-29T11:09:24;11.17;;;6.03;;
3573;SDS011;1801;51.050;6.246;2022-07-29T11:11:49;12.57;;;6.33;;
3573;SDS011;1801;51.050;6.246;2022-07-29T11:14:14;15.70;;;7.63;;
3573;SDS011;1801;51.050;6.246;2022-07-29T11:16:59;19.60;;;8.57;;
3573;SDS011;1801;51.050;6.246;2022-07-29T11:19:27;12.97;;;6.13;;
3573;SDS011;1801;51.050;6.246;2022-07-29T11:21:52;13.10;;;5.80;;
3573;SDS011;1801;51.050;6.246;2022-07-29T11:24:19;11.03;;;6.27;;
3573;SDS011;1801;51.050;6.246;2022-07-29T11:26:45;14.23;;;6.00;;
3573;SDS011;1801;51.050;6.246;2022-07-29T11:29:30;10.43;;;6.10;;
3573;SDS011;1801;51.050;6.246;2022-07-29T11:32:08;12.53;;;6.17;;
3573;SDS011;1801;51.050;6.246;2022-07-29T11:34:33;12.30;;;6.07;;
3573;SDS011;1801;51.050;6.246;2022-07-29T11:40:17;10.40;;;5.40;;
3573;SDS011;1801;51.050;6.246;2022-07-29T11:47:33;10.57;;;4.90;;
3573;SDS011;1801;51.050;6.246;2022-07-29T11:49:59;10.70;;;4.57;;
3573;SDS011;1801;51.050;6.246;2022-07-29T11:52:34;17.53;;;5.47;;
3573;SDS011;1801;51.050;6.246;2022-07-29T11:55:02;11.13;;;4.80;;
3573;SDS011;1801;51.050;6.246;2022-07-29T11:57:28;9.57;;;5.30;;
3573;SDS011;1801;51.050;6.246;2022-07-29T11:59:53;14.00;;;5.50;;
3573;SDS011;1801;51.050;6.246;2022-07-29T12:02:20;9.50;;;5.03;;
3573;SDS011;1801;51.050;6.246;2022-07-29T12:05:03;7.87;;;4.70;;
3573;SDS011;1801;51.050;6.246;2022-07-29T12:09:53;9.47;;;4.87;;
3573;SDS011;1801;51.050;6.246;2022-07-29T12:12:19;12.70;;;4.63;;
3573;SDS011;1801;51.050;6.246;2022-07-29T12:14:44;14.67;;;5.47;;
3573;SDS011;1801;51.050;6.246;2022-07-29T12:19:50;6.70;;;4.53;;
3573;SDS011;1801;51.050;6.246;2022-07-29T12:22:23;9.50;;;5.60;;
3573;SDS011;1801;51.050;6.246;2022-07-29T12:24:49;9.10;;;4.40;;
3573;SDS011;1801;51.050;6.246;2022-07-29T12:27:16;7.40;;;5.53;;
3573;SDS011;1801;51.050;6.246;2022-07-29T12:29:41;13.97;;;5.03;;
3573;SDS011;1801;51.050;6.246;2022-07-29T12:32:07;9.10;;;4.50;;
3573;SDS011;1801;51.050;6.246;2022-07-29T12:34:33;8.70;;;4.27;;
3573;SDS011;1801;51.050;6.246;2022-07-29T12:36:59;6.10;;;4.30;;
3573;SDS011;1801;51.050;6.246;2022-07-29T12:39:24;10.60;;;3.80;;
3573;SDS011;1801;51.050;6.246;2022-07-29T12:41:52;7.43;;;4.30;;
3573;SDS011;1801;51.050;6.246;2022-07-29T12:44:18;6.30;;;3.03;;
3573;SDS011;1801;51.050;6.246;2022-07-29T12:46:43;3.43;;;3.13;;
3573;SDS011;1801;51.050;6.246;2022-07-29T12:49:11;5.33;;;3.10;;
3573;SDS011;1801;51.050;6.246;2022-07-29T12:51:45;3.23;;;2.90;;
3573;SDS011;1801;51.050;6.246;2022-07-29T12:54:14;4.33;;;2.87;;
3573;SDS011;1801;51.050;6.246;2022-07-29T12:56:40;5.17;;;2.90;;
3573;SDS011;1801;51.050;6.246;2022-07-29T12:59:18;5.57;;;3.20;;
3573;SDS011;1801;51.050;6.246;2022-07-29T13:01:44;5.07;;;2.97;;
3573;SDS011;1801;51.050;6.246;2022-07-29T13:04:09;5.90;;;3.77;;
3573;SDS011;1801;51.050;6.246;2022-07-29T13:09:08;6.63;;;3.30;;
3573;SDS011;1801;51.050;6.246;2022-07-29T13:11:43;3.63;;;2.50;;
3573;SDS011;1801;51.050;6.246;2022-07-29T13:14:10;5.00;;;2.57;;
3573;SDS011;1801;51.050;6.246;2022-07-29T13:16:36;2.90;;;2.43;;
3573;SDS011;1801;51.050;6.246;2022-07-29T13:19:03;5.00;;;2.90;;
3573;SDS011;1801;51.050;6.246;2022-07-29T13:21:28;5.40;;;2.70;;
3573;SDS011;1801;51.050;6.246;2022-07-29T13:23:53;4.33;;;2.77;;
3573;SDS011;1801;51.050;6.246;2022-07-29T13:26:18;3.20;;;2.60;;
3573;SDS011;1801;51.050;6.246;2022-07-29T13:28:44;5.80;;;2.50;;
3573;SDS011;1801;51.050;6.246;2022-07-29T13:31:10;3.70;;;3.03;;
3573;SDS011;1801;51.050;6.246;2022-07-29T13:33:35;3.87;;;2.83;;
3573;SDS011;1801;51.050;6.246;2022-07-29T13:36:00;4.63;;;2.20;;
3573;SDS011;1801;51.050;6.246;2022-07-29T13:38:25;4.00;;;2.80;;
3573;SDS011;1801;51.050;6.246;2022-07-29T13:40:52;4.60;;;2.40;;
3573;SDS011;1801;51.050;6.246;2022-07-29T13:43:17;2.60;;;2.40;;
3573;SDS011;1801;51.050;6.246;2022-07-29T13:45:42;12.57;;;2.80;;
3573;SDS011;1801;51.050;6.246;2022-07-29T13:48:07;2.47;;;1.90;;
3573;SDS011;1801;51.050;6.246;2022-07-29T13:50:32;3.80;;;2.50;;
3573;SDS011;1801;51.050;6.246;2022-07-29T13:52:58;3.17;;;2.60;;
3573;SDS011;1801;51.050;6.246;2022-07-29T13:55:23;6.30;;;2.37;;
3573;SDS011;1801;51.050;6.246;2022-07-29T13:57:48;2.93;;;2.10;;
3573;SDS011;1801;51.050;6.246;2022-07-29T14:00:13;4.57;;;2.17;;
3573;SDS011;1801;51.050;6.246;2022-07-29T14:02:40;2.60;;;2.27;;
3573;SDS011;1801;51.050;6.246;2022-07-29T14:05:05;3.63;;;3.03;;
3573;SDS011;1801;51.050;6.246;2022-07-29T14:07:31;5.33;;;2.70;;
3573;SDS011;1801;51.050;6.246;2022-07-29T14:09:56;5.00;;;2.40;;
3573;SDS011;1801;51.050;6.246;2022-07-29T14:12:21;6.43;;;2.70;;
3573;SDS011;1801;51.050;6.246;2022-07-29T14:14:47;2.73;;;2.33;;
3573;SDS011;1801;51.050;6.246;2022-07-29T14:17:12;3.40;;;2.60;;
3573;SDS011;1801;51.050;6.246;2022-07-29T14:19:38;3.73;;;2.60;;
3573;SDS011;1801;51.050;6.246;2022-07-29T14:22:04;6.63;;;2.70;;
3573;SDS011;1801;51.050;6.246;2022-07-29T14:24:29;4.40;;;2.60;;
3573;SDS011;1801;51.050;6.246;2022-07-29T14:26:54;3.30;;;2.43;;
3573;SDS011;1801;51.050;6.246;2022-07-29T14:29:19;2.90;;;2.40;;
3573;SDS011;1801;51.050;6.246;2022-07-29T14:31:45;2.70;;;2.40;;
3573;SDS011;1801;51.050;6.246;2022-07-29T14:34:10;5.43;;;2.87;;
3573;SDS011;1801;51.050;6.246;2022-07-29T14:36:35;6.23;;;3.07;;
3573;SDS011;1801;51.050;6.246;2022-07-29T14:39:00;8.20;;;2.80;;
3573;SDS011;1801;51.050;6.246;2022-07-29T14:41:25;3.47;;;3.17;;
3573;SDS011;1801;51.050;6.246;2022-07-29T14:43:53;4.13;;;2.93;;
3573;SDS011;1801;51.050;6.246;2022-07-29T14:46:18;5.43;;;2.83;;
3573;SDS011;1801;51.050;6.246;2022-07-29T14:48:43;3.80;;;3.40;;
3573;SDS011;1801;51.050;6.246;2022-07-29T14:51:09;4.40;;;3.37;;
3573;SDS011;1801;51.050;6.246;2022-07-29T14:53:35;7.77;;;3.03;;
3573;SDS011;1801;51.050;6.246;2022-07-29T14:56:00;5.77;;;3.20;;
3573;SDS011;1801;51.050;6.246;2022-07-29T14:58:26;7.90;;;3.83;;
3573;SDS011;1801;51.050;6.246;2022-07-29T15:00:51;5.80;;;3.50;;
3573;SDS011;1801;51.050;6.246;2022-07-29T15:03:17;5.43;;;3.60;;
3573;SDS011;1801;51.050;6.246;2022-07-29T15:05:42;7.17;;;3.90;;
3573;SDS011;1801;51.050;6.246;2022-07-29T15:08:07;6.47;;;4.03;;
3573;SDS011;1801;51.050;6.246;2022-07-29T15:10:33;7.67;;;3.87;;
3573;SDS011;1801;51.050;6.246;2022-07-29T15:12:58;7.43;;;4.40;;
3573;SDS011;1801;51.050;6.246;2022-07-29T15:15:23;9.33;;;5.07;;
3573;SDS011;1801;51.050;6.246;2022-07-29T15:17:48;5.93;;;3.60;;
3573;SDS011;1801;51.050;6.246;2022-07-29T15:20:14;5.20;;;3.50;;
3573;SDS011;1801;51.050;6.246;2022-07-29T15:22:39;3.10;;;2.80;;
3573;SDS011;1801;51.050;6.246;2022-07-29T15:25:06;6.43;;;3.50;;
3573;SDS011;1801;51.050;6.246;2022-07-29T15:27:31;5.67;;;3.57;;
3573;SDS011;1801;51.050;6.246;2022-07-29T15:29:56;6.20;;;4.57;;
3573;SDS011;1801;51.050;6.246;2022-07-29T15:32:22;5.00;;;3.40;;
3573;SDS011;1801;51.050;6.246;2022-07-29T15:34:47;7.90;;;4.00;;
3573;SDS011;1801;51.050;6.246;2022-07-29T15:37:13;6.87;;;3.90;;
3573;SDS011;1801;51.050;6.246;2022-07-29T15:39:38;12.33;;;3.80;;
3573;SDS011;1801;51.050;6.246;2022-07-29T15:42:03;6.33;;;3.90;;
3573;SDS011;1801;51.050;6.246;2022-07-29T15:44:29;6.57;;;3.83;;
3573;SDS011;1801;51.050;6.246;2022-07-29T15:46:54;4.97;;;3.70;;
3573;SDS011;1801;51.050;6.246;2022-07-29T15:49:38;7.03;;;3.20;;
3573;SDS011;1801;51.050;6.246;2022-07-29T15:52:05;4.07;;;3.67;;
3573;SDS011;1801;51.050;6.246;2022-07-29T15:54:33;4.07;;;3.27;;